createdAt,value
2018-06-30T00:02:23.531Z,96.40
2018-06-30T00:04:52.905Z,96.40
2018-06-30T00:07:25.106Z,96.60
2018-06-30T00:09:53.453Z,96.80
2018-06-30T00:12:21.787Z,96.80
2018-06-30T00:14:53.052Z,96.90
2018-06-30T00:17:25.018Z,97.10
2018-06-30T00:22:23.634Z,97.30
2018-06-30T00:24:55.574Z,97.30
2018-06-30T00:27:32.052Z,97.50
2018-06-30T00:30:01.287Z,97.70
2018-06-30T00:32:29.608Z,98.10
2018-06-30T00:34:57.896Z,98.50
2018-06-30T00:37:26.180Z,98.90
2018-06-30T00:39:54.497Z,99.40
2018-06-30T00:42:23.786Z,99.80
2018-06-30T00:44:56.122Z,99.90
2018-06-30T00:47:27.511Z,99.90
2018-06-30T00:49:55.775Z,99.90
2018-06-30T00:52:24.078Z,99.90
2018-06-30T00:54:52.365Z,99.90
2018-06-30T00:57:21.058Z,99.90
2018-06-30T00:59:50.300Z,99.90
2018-06-30T01:02:22.296Z,99.90
2018-06-30T01:04:52.707Z,99.90
2018-06-30T01:07:21.433Z,99.90
2018-06-30T01:09:52.589Z,99.90
2018-06-30T01:12:22.394Z,99.90
2018-06-30T01:14:50.670Z,99.90
2018-06-30T01:17:18.975Z,99.90
2018-06-30T01:19:47.241Z,99.90
2018-06-30T01:22:18.458Z,99.90
2018-06-30T01:24:51.618Z,99.90
2018-06-30T01:27:20.000Z,99.90
2018-06-30T01:29:48.281Z,99.90
2018-06-30T01:32:16.666Z,99.90
2018-06-30T01:34:44.973Z,99.90
2018-06-30T01:37:13.258Z,99.90
2018-06-30T01:39:45.622Z,99.90
2018-06-30T01:42:15.084Z,99.90
2018-06-30T01:44:44.734Z,99.90
2018-06-30T01:47:12.985Z,99.90
2018-06-30T01:49:43.186Z,99.90
2018-06-30T01:52:11.497Z,99.90
2018-06-30T01:54:39.787Z,99.90
2018-06-30T01:57:08.075Z,99.90
2018-06-30T01:59:40.373Z,99.90
2018-06-30T02:02:12.285Z,99.90
2018-06-30T02:04:43.478Z,99.90
2018-06-30T02:07:11.737Z,99.90
2018-06-30T02:09:40.106Z,99.90
2018-06-30T02:12:08.424Z,99.90
2018-06-30T02:14:36.722Z,99.90
2018-06-30T02:17:04.977Z,99.90
2018-06-30T02:19:33.303Z,99.90
2018-06-30T02:22:01.570Z,99.90
2018-06-30T02:24:29.973Z,99.90
2018-06-30T02:26:58.235Z,99.90
2018-06-30T02:29:30.349Z,99.90
2018-06-30T02:31:58.697Z,99.90
2018-06-30T02:34:27.293Z,99.90
2018-06-30T02:36:55.755Z,99.90
2018-06-30T02:39:24.787Z,99.90
2018-06-30T02:41:54.413Z,99.90
2018-06-30T02:44:22.819Z,99.90
2018-06-30T02:46:51.080Z,99.90
2018-06-30T02:49:20.653Z,99.90
2018-06-30T02:51:48.919Z,99.90
2018-06-30T02:54:17.214Z,99.90
2018-06-30T02:56:45.521Z,99.90
2018-06-30T02:59:14.477Z,99.90
2018-06-30T03:01:42.766Z,99.90
2018-06-30T03:04:11.035Z,99.90
2018-06-30T03:06:39.314Z,99.90
2018-06-30T03:09:09.010Z,99.90
2018-06-30T03:11:37.310Z,99.90
2018-06-30T03:14:05.774Z,99.90
2018-06-30T03:16:34.058Z,99.90
2018-06-30T03:19:02.340Z,99.90
2018-06-30T03:21:30.625Z,99.90
2018-06-30T03:23:58.918Z,99.90
2018-06-30T03:26:27.207Z,99.90
2018-06-30T03:28:57.021Z,99.90
2018-06-30T03:31:27.298Z,99.90
2018-06-30T03:33:55.516Z,99.90
2018-06-30T03:36:23.838Z,99.90
2018-06-30T03:38:52.133Z,99.90
2018-06-30T03:41:20.415Z,99.90
2018-06-30T03:43:48.681Z,99.90
2018-06-30T03:46:17.079Z,99.90
2018-06-30T03:48:45.366Z,99.90
2018-06-30T03:51:13.642Z,99.90
2018-06-30T03:53:47.951Z,99.90
2018-06-30T03:56:19.671Z,99.90
2018-06-30T03:58:47.950Z,99.90
2018-06-30T04:01:16.295Z,99.90
2018-06-30T04:03:48.783Z,99.90
2018-06-30T04:06:17.150Z,99.90
2018-06-30T04:08:45.764Z,99.90
2018-06-30T04:11:17.735Z,99.90
2018-06-30T04:16:19.220Z,99.90
2018-06-30T04:18:47.927Z,99.90
2018-06-30T04:21:16.282Z,99.90
2018-06-30T04:23:44.571Z,99.90
2018-06-30T04:26:12.839Z,99.90
2018-06-30T04:28:41.157Z,99.90
2018-06-30T04:31:09.422Z,99.90
2018-06-30T04:33:37.722Z,99.90
2018-06-30T04:36:05.995Z,99.90
2018-06-30T04:38:34.294Z,99.90
2018-06-30T04:41:02.588Z,99.90
2018-06-30T04:43:30.870Z,99.90
2018-06-30T04:48:27.183Z,99.90
2018-06-30T04:50:58.839Z,99.90
2018-06-30T04:53:27.103Z,99.90
2018-06-30T04:55:55.376Z,99.90
2018-06-30T04:58:23.671Z,99.90
2018-06-30T05:00:51.934Z,99.90
2018-06-30T05:03:20.447Z,99.90
2018-06-30T05:05:50.478Z,99.90
2018-06-30T05:08:20.402Z,99.90
2018-06-30T05:10:50.466Z,99.90
2018-06-30T05:13:18.755Z,99.90
2018-06-30T05:15:47.018Z,99.90
2018-06-30T05:18:15.803Z,99.90
2018-06-30T05:20:44.265Z,99.90
2018-06-30T05:23:12.573Z,99.90
2018-06-30T05:25:40.872Z,99.90
2018-06-30T05:28:09.635Z,99.90
2018-06-30T05:30:37.913Z,99.90
2018-06-30T05:33:06.736Z,99.90
2018-06-30T05:35:39.277Z,99.90
2018-06-30T05:38:12.638Z,99.90
2018-06-30T05:40:47.839Z,99.90
2018-06-30T05:43:17.920Z,99.90
2018-06-30T05:45:52.035Z,99.90
2018-06-30T05:48:22.780Z,99.90
2018-06-30T05:50:53.185Z,99.90
2018-06-30T05:53:27.898Z,99.90
2018-06-30T05:56:05.388Z,99.90
2018-06-30T05:58:38.170Z,99.90
2018-06-30T06:01:14.961Z,99.90
2018-06-30T06:03:48.631Z,99.90
2018-06-30T06:06:23.641Z,99.90
2018-06-30T06:08:53.201Z,99.90
2018-06-30T06:11:23.458Z,99.90
2018-06-30T06:13:54.406Z,99.90
2018-06-30T06:16:22.689Z,99.90
2018-06-30T06:18:53.339Z,99.90
2018-06-30T06:21:24.857Z,99.90
2018-06-30T06:23:56.415Z,99.90
2018-06-30T06:26:25.029Z,99.90
2018-06-30T06:28:55.678Z,99.90
2018-06-30T06:31:24.014Z,99.90
2018-06-30T06:33:52.613Z,99.90
2018-06-30T06:36:20.910Z,99.90
2018-06-30T06:38:49.163Z,99.90
2018-06-30T06:41:17.469Z,99.90
2018-06-30T06:43:47.594Z,99.90
2018-06-30T06:46:15.948Z,99.90
2018-06-30T06:48:45.433Z,99.90
2018-06-30T06:51:18.180Z,99.90
2018-06-30T06:53:50.762Z,99.90
2018-06-30T06:56:20.645Z,99.90
2018-06-30T06:58:51.983Z,99.90
2018-06-30T07:01:21.868Z,99.90
2018-06-30T07:03:52.934Z,99.90
2018-06-30T07:06:21.481Z,99.90
2018-06-30T07:08:49.785Z,99.90
2018-06-30T07:11:18.206Z,99.90
2018-06-30T07:13:46.507Z,99.90
2018-06-30T07:16:18.250Z,99.90
2018-06-30T07:18:47.640Z,99.90
2018-06-30T07:21:16.284Z,99.90
2018-06-30T07:23:46.979Z,99.90
2018-06-30T07:26:19.960Z,99.90
2018-06-30T07:28:49.188Z,99.90
2018-06-30T07:31:22.409Z,99.50
2018-06-30T07:33:55.281Z,98.60
2018-06-30T07:36:24.200Z,99.60
2018-06-30T07:38:57.761Z,98.80
2018-06-30T07:41:29.884Z,98.20
2018-06-30T07:44:03.219Z,99.00
2018-06-30T07:46:32.720Z,97.60
2018-06-30T07:49:06.239Z,97.70
2018-06-30T07:51:36.310Z,97.00
2018-06-30T07:54:07.522Z,97.10
2018-06-30T07:56:42.861Z,96.70
2018-06-30T07:59:20.341Z,96.00
2018-06-30T08:01:51.414Z,95.70
2018-06-30T08:04:20.980Z,95.30
2018-06-30T08:06:49.205Z,95.10
2018-06-30T08:09:18.120Z,95.00
2018-06-30T08:11:46.494Z,94.50
2018-06-30T08:14:16.466Z,94.60
2018-06-30T08:16:49.892Z,94.00
2018-06-30T08:19:22.546Z,93.50
2018-06-30T08:21:56.514Z,94.40
2018-06-30T08:24:26.570Z,93.80
2018-06-30T08:26:59.666Z,92.90
2018-06-30T08:29:32.153Z,91.50
2018-06-30T08:32:04.417Z,91.60
2018-06-30T08:34:36.138Z,91.30
2018-06-30T08:37:08.925Z,91.50
2018-06-30T08:39:37.302Z,91.40
2018-06-30T08:42:08.659Z,91.80
2018-06-30T08:44:37.468Z,91.50
2018-06-30T08:47:10.269Z,90.50
2018-06-30T08:49:42.080Z,90.00
2018-06-30T08:52:12.343Z,88.70
2018-06-30T08:54:40.639Z,89.90
2018-06-30T08:57:09.229Z,88.40
2018-06-30T08:59:37.913Z,87.00
2018-06-30T09:02:10.721Z,86.60
2018-06-30T09:04:39.133Z,87.00
2018-06-30T09:07:07.439Z,87.30
2018-06-30T09:09:35.801Z,87.00
2018-06-30T09:12:04.236Z,86.30
2018-06-30T09:14:32.479Z,82.70
2018-06-30T09:17:01.860Z,81.60
2018-06-30T09:19:30.340Z,82.60
2018-06-30T09:21:58.624Z,80.60
2018-06-30T09:24:26.886Z,82.00
2018-06-30T09:27:20.567Z,84.00
2018-06-30T09:29:56.992Z,82.20
2018-06-30T09:32:30.696Z,82.30
2018-06-30T09:35:00.998Z,82.90
2018-06-30T09:40:01.725Z,80.50
2018-06-30T09:44:58.199Z,79.00
2018-06-30T09:47:26.519Z,79.50
2018-06-30T09:49:54.810Z,78.20
2018-06-30T09:52:23.339Z,78.30
2018-06-30T09:54:51.795Z,77.30
2018-06-30T09:57:23.478Z,77.90
2018-06-30T09:59:56.357Z,78.30
2018-06-30T10:05:05.847Z,79.50
2018-06-30T10:07:35.461Z,78.30
2018-06-30T10:10:04.908Z,78.60
2018-06-30T10:12:34.545Z,79.70
2018-06-30T10:15:02.831Z,79.50
2018-06-30T10:17:31.152Z,78.60
2018-06-30T10:19:59.483Z,79.90
2018-06-30T10:22:29.308Z,79.30
2018-06-30T10:24:57.562Z,78.20
2018-06-30T10:27:25.890Z,79.50
2018-06-30T10:29:54.163Z,77.80
2018-06-30T10:32:22.517Z,78.60
2018-06-30T10:34:50.836Z,80.40
2018-06-30T10:37:19.148Z,78.00
2018-06-30T10:39:48.267Z,78.00
2018-06-30T10:42:16.984Z,75.00
2018-06-30T10:44:45.329Z,76.70
2018-06-30T10:47:14.414Z,77.60
2018-06-30T10:49:43.045Z,76.70
2018-06-30T10:52:11.595Z,76.20
2018-06-30T10:54:39.867Z,76.40
2018-06-30T10:57:08.165Z,77.60
2018-06-30T10:59:47.419Z,77.10
2018-06-30T11:02:19.766Z,77.20
2018-06-30T11:04:51.334Z,79.40
2018-06-30T11:07:19.635Z,80.80
2018-06-30T11:09:48.686Z,81.90
2018-06-30T11:12:19.286Z,82.00
2018-06-30T11:14:48.653Z,81.30
2018-06-30T11:17:17.191Z,82.20
2018-06-30T11:19:45.479Z,83.10
2018-06-30T11:22:15.404Z,82.90
2018-06-30T11:24:43.777Z,82.70
2018-06-30T11:27:12.036Z,84.10
2018-06-30T11:29:42.111Z,84.50
2018-06-30T11:32:15.180Z,82.30
2018-06-30T11:34:48.897Z,81.30
2018-06-30T11:37:18.089Z,82.80
2018-06-30T11:39:47.182Z,82.40
2018-06-30T11:42:18.588Z,82.20
2018-06-30T11:44:57.459Z,82.30
2018-06-30T11:47:25.925Z,82.40
2018-06-30T11:49:54.212Z,82.20
2018-06-30T11:52:22.547Z,82.90
2018-06-30T11:54:51.242Z,81.10
2018-06-30T11:57:19.649Z,81.80
2018-06-30T11:59:52.539Z,81.70
2018-06-30T12:02:21.410Z,80.80
2018-06-30T12:07:24.711Z,82.70
2018-06-30T12:09:59.194Z,81.90
2018-06-30T12:12:28.643Z,81.30
2018-06-30T12:15:00.568Z,82.30
2018-06-30T12:17:28.817Z,80.90
2018-06-30T12:19:57.104Z,82.10
2018-06-30T12:22:25.370Z,80.60
2018-06-30T12:24:53.658Z,80.00
2018-06-30T12:27:21.925Z,80.60
2018-06-30T12:29:50.207Z,80.20
2018-06-30T12:32:18.515Z,79.20
2018-06-30T12:34:46.738Z,79.10
2018-06-30T12:37:15.023Z,79.00
2018-06-30T12:39:43.294Z,78.80
2018-06-30T12:42:11.622Z,77.70
2018-06-30T12:44:39.903Z,78.00
2018-06-30T12:47:08.177Z,78.70
2018-06-30T12:49:36.442Z,78.20
2018-06-30T12:52:04.913Z,78.50
2018-06-30T12:54:34.375Z,77.20
2018-06-30T12:59:30.462Z,76.00
2018-06-30T13:01:58.767Z,77.30
2018-06-30T13:04:27.046Z,75.90
2018-06-30T13:06:55.326Z,75.90
2018-06-30T13:09:23.677Z,76.90
2018-06-30T13:11:52.210Z,75.60
2018-06-30T13:14:21.059Z,75.40
2018-06-30T13:16:49.383Z,75.40
2018-06-30T13:19:17.671Z,75.40
2018-06-30T13:21:45.998Z,74.20
2018-06-30T13:24:14.286Z,73.60
2018-06-30T13:26:42.586Z,73.80
2018-06-30T13:29:10.958Z,74.80
2018-06-30T13:31:39.237Z,74.50
2018-06-30T13:34:07.876Z,74.40
2018-06-30T13:36:36.211Z,73.90
2018-06-30T13:39:08.751Z,74.60
2018-06-30T13:41:37.204Z,74.90
2018-06-30T13:44:11.544Z,74.70
2018-06-30T13:46:42.063Z,74.60
2018-06-30T13:49:11.035Z,73.90
2018-06-30T13:51:39.801Z,73.80
2018-06-30T13:54:15.710Z,71.10
2018-06-30T13:56:44.995Z,72.00
2018-06-30T13:59:15.490Z,73.00
2018-06-30T14:01:43.813Z,72.00
2018-06-30T14:04:18.621Z,72.60
2018-06-30T14:06:51.160Z,73.40
2018-06-30T14:09:20.043Z,71.00
2018-06-30T14:11:49.648Z,72.30
2018-06-30T14:14:28.238Z,71.80
2018-06-30T14:16:56.988Z,70.90
2018-06-30T14:19:25.811Z,71.00
2018-06-30T14:21:54.704Z,71.20
2018-06-30T14:26:52.207Z,68.40
2018-06-30T14:29:22.270Z,68.90
2018-06-30T14:31:52.600Z,69.20
2018-06-30T14:34:21.834Z,69.10
2018-06-30T14:36:52.206Z,69.10
2018-06-30T14:39:21.358Z,69.00
2018-06-30T14:44:30.815Z,68.00
2018-06-30T14:47:01.114Z,68.30
2018-06-30T14:49:30.248Z,68.40
2018-06-30T14:52:02.845Z,68.50
2018-06-30T14:54:37.000Z,70.20
2018-06-30T14:57:07.324Z,68.30
2018-06-30T14:59:35.658Z,67.80
2018-06-30T15:02:03.961Z,67.20
2018-06-30T15:04:32.259Z,67.60
2018-06-30T15:09:29.881Z,64.90
2018-06-30T15:11:58.280Z,65.90
2018-06-30T15:14:26.559Z,66.30
2018-06-30T15:16:54.891Z,64.40
2018-06-30T15:19:23.942Z,64.30
2018-06-30T15:21:52.233Z,63.60
2018-06-30T15:24:22.976Z,64.80
2018-06-30T15:26:57.610Z,64.00
2018-06-30T15:29:40.343Z,64.60
2018-06-30T15:32:09.710Z,63.30
2018-06-30T15:34:38.043Z,63.50
2018-06-30T15:37:06.348Z,64.30
2018-06-30T15:39:47.145Z,64.60
2018-06-30T15:42:16.061Z,63.10
2018-06-30T15:44:44.387Z,62.40
2018-06-30T15:47:12.663Z,62.90
2018-06-30T15:49:41.616Z,62.90
2018-06-30T15:52:16.241Z,63.50
2018-06-30T15:54:44.582Z,64.00
2018-06-30T15:57:16.986Z,62.70
2018-06-30T15:59:48.483Z,62.60
2018-06-30T16:02:17.314Z,63.70
2018-06-30T16:05:03.623Z,62.60
2018-06-30T16:07:31.964Z,62.60
2018-06-30T16:10:00.281Z,61.10
2018-06-30T16:15:01.235Z,60.50
2018-06-30T16:17:30.214Z,61.90
2018-06-30T16:19:59.577Z,59.10
2018-06-30T16:22:28.803Z,59.50
2018-06-30T16:24:57.636Z,59.40
2018-06-30T16:27:26.386Z,58.50
2018-06-30T16:29:54.687Z,59.00
2018-06-30T16:32:30.142Z,58.20
2018-06-30T16:34:59.083Z,58.60
2018-06-30T16:37:27.802Z,58.40
2018-06-30T16:39:59.834Z,58.90
2018-06-30T16:42:28.267Z,58.80
2018-06-30T16:44:56.563Z,59.00
2018-06-30T16:47:26.294Z,56.90
2018-06-30T16:50:00.187Z,56.70
2018-06-30T16:52:29.183Z,56.40
2018-06-30T16:54:57.566Z,56.30
2018-06-30T16:57:25.863Z,55.90
2018-06-30T17:00:00.669Z,56.60
2018-06-30T17:02:32.476Z,57.20
2018-06-30T17:05:00.727Z,56.30
2018-06-30T17:07:33.640Z,56.80
2018-06-30T17:10:06.633Z,56.30
2018-06-30T17:12:44.228Z,55.20
2018-06-30T17:15:12.502Z,54.50
2018-06-30T17:17:40.791Z,55.80
2018-06-30T17:20:09.861Z,55.90
2018-06-30T17:22:41.583Z,55.20
2018-06-30T17:25:09.975Z,55.60
2018-06-30T17:27:38.749Z,55.90
2018-06-30T17:30:07.571Z,56.20
2018-06-30T17:32:36.196Z,55.40
2018-06-30T17:35:04.502Z,56.20
2018-06-30T17:37:43.129Z,55.70
2018-06-30T17:40:14.661Z,55.20
2018-06-30T17:42:43.073Z,56.50
2018-06-30T17:45:11.421Z,55.50
2018-06-30T17:47:40.010Z,54.30
2018-06-30T17:50:13.123Z,54.50
2018-06-30T17:52:41.946Z,54.80
2018-06-30T17:55:11.067Z,55.00
2018-06-30T17:57:39.519Z,54.50
2018-06-30T18:00:08.326Z,54.40
2018-06-30T18:02:36.781Z,54.30
2018-06-30T18:05:05.586Z,55.20
2018-06-30T18:07:33.907Z,55.80
2018-06-30T18:10:02.980Z,54.80
2018-06-30T18:12:31.916Z,55.90
2018-06-30T18:15:00.728Z,55.20
2018-06-30T18:17:41.698Z,55.60
2018-06-30T18:20:12.683Z,54.90
2018-06-30T18:22:41.056Z,55.00
2018-06-30T18:25:13.177Z,54.70
2018-06-30T18:27:50.455Z,54.90
2018-06-30T18:30:18.850Z,55.10
2018-06-30T18:32:47.122Z,55.60
2018-06-30T18:35:15.454Z,55.30
2018-06-30T18:37:44.286Z,55.40
2018-06-30T18:42:42.648Z,55.40
2018-06-30T18:45:10.990Z,55.00
2018-06-30T18:47:39.276Z,55.40
2018-06-30T18:50:07.563Z,55.00
2018-06-30T18:52:36.019Z,55.60
2018-06-30T18:55:04.443Z,55.70
2018-06-30T18:57:32.873Z,55.90
2018-06-30T19:00:02.305Z,56.40
2018-06-30T19:02:32.907Z,56.50
2018-06-30T19:05:01.177Z,56.60
2018-06-30T19:09:57.530Z,57.30
2018-06-30T19:12:25.755Z,57.60
2018-06-30T19:14:54.084Z,57.90
2018-06-30T19:17:22.342Z,57.90
2018-06-30T19:22:19.928Z,58.10
2018-06-30T19:27:19.388Z,58.80
2018-06-30T19:29:48.916Z,58.70
2018-06-30T19:32:17.620Z,58.70
2018-06-30T19:34:46.078Z,58.50
2018-06-30T19:37:15.668Z,58.60
2018-06-30T19:39:44.178Z,58.50
2018-06-30T19:42:12.818Z,58.50
2018-06-30T19:44:41.647Z,58.60
2018-06-30T19:47:10.534Z,58.70
2018-06-30T19:49:38.806Z,59.50
2018-06-30T19:52:08.100Z,59.00
2018-06-30T19:54:36.549Z,59.10
2018-06-30T19:59:41.235Z,59.70
2018-06-30T20:04:38.914Z,64.40
2018-06-30T20:07:07.903Z,68.10
2018-06-30T20:09:36.186Z,64.50
2018-06-30T20:12:04.531Z,64.10
2018-06-30T20:14:32.800Z,63.80
2018-06-30T20:17:01.990Z,64.20
2018-06-30T20:19:30.943Z,64.80
2018-06-30T20:21:59.191Z,64.60
2018-06-30T20:24:27.782Z,64.50
2018-06-30T20:26:56.068Z,64.80
2018-06-30T20:29:24.599Z,64.80
2018-06-30T20:31:52.850Z,65.20
2018-06-30T20:34:31.358Z,65.10
2018-06-30T20:36:59.655Z,64.80
2018-06-30T20:39:35.757Z,64.80
2018-06-30T20:42:06.192Z,64.70
2018-06-30T20:44:40.318Z,64.70
2018-06-30T20:47:08.918Z,65.40
2018-06-30T20:49:37.597Z,65.50
2018-06-30T20:52:10.992Z,65.50
2018-06-30T20:54:40.782Z,65.80
2018-06-30T20:57:09.718Z,66.50
2018-06-30T20:59:40.168Z,66.70
2018-06-30T21:02:12.867Z,67.00
2018-06-30T21:04:41.172Z,67.20
2018-06-30T21:07:09.425Z,67.50
2018-06-30T21:09:37.689Z,67.70
2018-06-30T21:12:05.994Z,67.80
2018-06-30T21:14:34.252Z,68.30
2018-06-30T21:17:02.546Z,68.40
2018-06-30T21:22:05.163Z,69.00
2018-06-30T21:24:39.600Z,69.20
2018-06-30T21:27:08.610Z,69.60
2018-06-30T21:29:39.339Z,70.10
2018-06-30T21:32:08.015Z,70.10
2018-06-30T21:34:36.922Z,70.40
2018-06-30T21:37:11.412Z,70.50
2018-06-30T21:39:39.743Z,70.80
2018-06-30T21:42:08.476Z,71.20
2018-06-30T21:44:37.327Z,71.40
2018-06-30T21:49:34.390Z,71.60
2018-06-30T21:52:02.714Z,71.40
2018-06-30T21:54:31.007Z,71.80
2018-06-30T21:56:59.351Z,72.20
2018-06-30T21:59:27.605Z,72.00
2018-06-30T22:01:55.956Z,72.20
2018-06-30T22:07:00.975Z,73.20
2018-06-30T22:09:29.262Z,72.20
2018-06-30T22:11:58.177Z,72.80
2018-06-30T22:14:28.514Z,72.70
2018-06-30T22:16:58.698Z,72.50
2018-06-30T22:19:26.986Z,72.90
2018-06-30T22:21:56.041Z,73.10
2018-06-30T22:24:24.992Z,73.00
2018-06-30T22:29:57.574Z,73.70
2018-06-30T22:32:25.880Z,73.30
2018-06-30T22:34:54.129Z,73.60
2018-06-30T22:37:23.042Z,73.80
2018-06-30T22:40:02.883Z,73.50
2018-06-30T22:42:31.189Z,73.50
2018-06-30T22:44:59.586Z,73.50
2018-06-30T22:47:27.896Z,73.20
2018-06-30T22:49:56.164Z,73.70
2018-06-30T22:52:29.622Z,73.40
2018-06-30T22:54:58.626Z,73.70
2018-06-30T22:57:27.082Z,74.10
2018-06-30T22:59:55.550Z,74.30
2018-06-30T23:02:23.930Z,74.20
2018-06-30T23:04:52.183Z,74.50
2018-06-30T23:07:20.758Z,74.90
2018-06-30T23:12:19.188Z,75.40
2018-06-30T23:15:00.811Z,75.40
2018-06-30T23:17:29.251Z,75.80
2018-06-30T23:19:59.498Z,75.80
2018-06-30T23:22:39.746Z,76.30
2018-06-30T23:25:08.402Z,76.30
2018-06-30T23:27:37.625Z,76.40
2018-06-30T23:30:06.459Z,76.30
2018-06-30T23:32:34.804Z,76.00
2018-06-30T23:35:03.530Z,76.40
2018-06-30T23:37:31.875Z,76.70
2018-06-30T23:40:00.468Z,76.30
2018-06-30T23:42:28.730Z,76.50
2018-06-30T23:44:57.588Z,77.10
2018-06-30T23:47:26.430Z,77.00
2018-06-30T23:49:57.696Z,77.00
2018-06-30T23:52:31.102Z,77.10
2018-06-30T23:55:00.690Z,77.20
2018-06-30T23:57:29.575Z,77.50
